sensor_id;sensor_type;location;lat;lon;timestamp;P1;durP1;ratioP1;P2;durP2;ratioP2
62925;SDS011;55732;52.248;-0.844;2023-07-22T00:01:05;3.90;;;1.20;;
62925;SDS011;55732;52.248;-0.844;2023-07-22T00:03:31;3.80;;;1.20;;
62925;SDS011;55732;52.248;-0.844;2023-07-22T00:06:03;1.80;;;1.30;;
62925;SDS011;55732;52.248;-0.844;2023-07-22T00:08:32;2.00;;;1.50;;
62925;SDS011;55732;52.248;-0.844;2023-07-22T00:10:59;3.10;;;1.30;;
62925;SDS011;55732;52.248;-0.844;2023-07-22T00:13:24;5.00;;;1.40;;
62925;SDS011;55732;52.248;-0.844;2023-07-22T00:15:52;1.60;;;1.30;;
62925;SDS011;55732;52.248;-0.844;2023-07-22T00:18:18;1.70;;;1.30;;
62925;SDS011;55732;52.248;-0.844;2023-07-22T00:20:44;2.00;;;1.20;;
62925;SDS011;55732;52.248;-0.844;2023-07-22T00:23:09;2.90;;;1.20;;
62925;SDS011;55732;52.248;-0.844;2023-07-22T00:25:36;4.30;;;1.40;;
62925;SDS011;55732;52.248;-0.844;2023-07-22T00:28:01;2.30;;;1.30;;
62925;SDS011;55732;52.248;-0.844;2023-07-22T00:30:26;2.20;;;1.50;;
62925;SDS011;55732;52.248;-0.844;2023-07-22T00:32:53;1.80;;;1.50;;
62925;SDS011;55732;52.248;-0.844;2023-07-22T00:35:19;2.30;;;1.70;;
62925;SDS011;55732;52.248;-0.844;2023-07-22T00:37:44;3.00;;;1.60;;
62925;SDS011;55732;52.248;-0.844;2023-07-22T00:40:09;2.20;;;1.30;;
62925;SDS011;55732;52.248;-0.844;2023-07-22T00:42:39;2.60;;;1.70;;
62925;SDS011;55732;52.248;-0.844;2023-07-22T00:45:05;1.80;;;1.50;;
62925;SDS011;55732;52.248;-0.844;2023-07-22T00:47:32;1.90;;;1.50;;
62925;SDS011;55732;52.248;-0.844;2023-07-22T00:49:59;1.70;;;1.60;;
62925;SDS011;55732;52.248;-0.844;2023-07-22T00:52:27;4.10;;;1.70;;
62925;SDS011;55732;52.248;-0.844;2023-07-22T00:54:53;2.60;;;1.70;;
62925;SDS011;55732;52.248;-0.844;2023-07-22T00:57:18;2.50;;;2.00;;
62925;SDS011;55732;52.248;-0.844;2023-07-22T00:59:44;3.20;;;1.80;;
62925;SDS011;55732;52.248;-0.844;2023-07-22T01:02:10;2.50;;;1.70;;
62925;SDS011;55732;52.248;-0.844;2023-07-22T01:04:35;3.60;;;1.90;;
62925;SDS011;55732;52.248;-0.844;2023-07-22T01:07:02;4.40;;;1.80;;
62925;SDS011;55732;52.248;-0.844;2023-07-22T01:09:55;2.30;;;1.60;;
62925;SDS011;55732;52.248;-0.844;2023-07-22T01:12:21;2.40;;;1.80;;
62925;SDS011;55732;52.248;-0.844;2023-07-22T01:14:47;4.60;;;1.80;;
62925;SDS011;55732;52.248;-0.844;2023-07-22T01:17:12;2.00;;;1.50;;
62925;SDS011;55732;52.248;-0.844;2023-07-22T01:19:38;2.90;;;1.70;;
62925;SDS011;55732;52.248;-0.844;2023-07-22T01:22:04;1.70;;;1.60;;
62925;SDS011;55732;52.248;-0.844;2023-07-22T01:24:32;6.30;;;1.80;;
62925;SDS011;55732;52.248;-0.844;2023-07-22T01:26:58;1.60;;;1.50;;
62925;SDS011;55732;52.248;-0.844;2023-07-22T01:29:23;2.50;;;1.80;;
62925;SDS011;55732;52.248;-0.844;2023-07-22T01:31:50;4.40;;;2.00;;
62925;SDS011;55732;52.248;-0.844;2023-07-22T01:34:17;5.70;;;2.20;;
62925;SDS011;55732;52.248;-0.844;2023-07-22T01:36:43;4.20;;;1.80;;
62925;SDS011;55732;52.248;-0.844;2023-07-22T01:39:10;4.20;;;1.50;;
62925;SDS011;55732;52.248;-0.844;2023-07-22T01:41:36;2.30;;;1.80;;
62925;SDS011;55732;52.248;-0.844;2023-07-22T01:44:02;2.80;;;1.80;;
62925;SDS011;55732;52.248;-0.844;2023-07-22T01:46:27;6.60;;;1.80;;
62925;SDS011;55732;52.248;-0.844;2023-07-22T01:48:53;4.50;;;2.20;;
62925;SDS011;55732;52.248;-0.844;2023-07-22T01:51:20;2.90;;;1.80;;
62925;SDS011;55732;52.248;-0.844;2023-07-22T01:53:45;8.10;;;2.30;;
62925;SDS011;55732;52.248;-0.844;2023-07-22T01:56:10;5.10;;;1.90;;
62925;SDS011;55732;52.248;-0.844;2023-07-22T01:58:36;2.70;;;1.80;;
62925;SDS011;55732;52.248;-0.844;2023-07-22T02:01:01;2.70;;;1.70;;
62925;SDS011;55732;52.248;-0.844;2023-07-22T02:03:26;4.80;;;2.20;;
62925;SDS011;55732;52.248;-0.844;2023-07-22T02:05:52;3.10;;;1.80;;
62925;SDS011;55732;52.248;-0.844;2023-07-22T02:08:17;3.40;;;1.80;;
62925;SDS011;55732;52.248;-0.844;2023-07-22T02:10:43;4.30;;;2.20;;
62925;SDS011;55732;52.248;-0.844;2023-07-22T02:13:08;4.20;;;2.20;;
62925;SDS011;55732;52.248;-0.844;2023-07-22T02:15:34;4.30;;;1.90;;
62925;SDS011;55732;52.248;-0.844;2023-07-22T02:18:00;5.60;;;2.00;;
62925;SDS011;55732;52.248;-0.844;2023-07-22T02:20:26;2.40;;;1.80;;
62925;SDS011;55732;52.248;-0.844;2023-07-22T02:22:54;5.10;;;1.90;;
62925;SDS011;55732;52.248;-0.844;2023-07-22T02:25:20;2.10;;;1.90;;
62925;SDS011;55732;52.248;-0.844;2023-07-22T02:27:45;2.30;;;1.70;;
62925;SDS011;55732;52.248;-0.844;2023-07-22T02:30:11;3.70;;;1.90;;
62925;SDS011;55732;52.248;-0.844;2023-07-22T02:32:40;4.20;;;1.90;;
62925;SDS011;55732;52.248;-0.844;2023-07-22T02:35:06;2.50;;;2.10;;
62925;SDS011;55732;52.248;-0.844;2023-07-22T02:37:33;3.90;;;2.00;;
62925;SDS011;55732;52.248;-0.844;2023-07-22T02:39:59;5.40;;;2.20;;
62925;SDS011;55732;52.248;-0.844;2023-07-22T02:42:25;2.90;;;1.80;;
62925;SDS011;55732;52.248;-0.844;2023-07-22T02:44:50;4.20;;;1.90;;
62925;SDS011;55732;52.248;-0.844;2023-07-22T02:47:16;4.10;;;2.00;;
62925;SDS011;55732;52.248;-0.844;2023-07-22T02:49:43;3.50;;;2.00;;
62925;SDS011;55732;52.248;-0.844;2023-07-22T02:52:08;3.40;;;2.10;;
62925;SDS011;55732;52.248;-0.844;2023-07-22T02:54:39;4.60;;;2.20;;
62925;SDS011;55732;52.248;-0.844;2023-07-22T02:57:06;2.50;;;2.00;;
62925;SDS011;55732;52.248;-0.844;2023-07-22T02:59:32;3.10;;;2.20;;
62925;SDS011;55732;52.248;-0.844;2023-07-22T03:01:58;3.50;;;2.30;;
62925;SDS011;55732;52.248;-0.844;2023-07-22T03:04:24;3.60;;;2.20;;
62925;SDS011;55732;52.248;-0.844;2023-07-22T03:06:49;2.80;;;2.20;;
62925;SDS011;55732;52.248;-0.844;2023-07-22T03:09:15;5.50;;;2.30;;
62925;SDS011;55732;52.248;-0.844;2023-07-22T03:11:40;7.00;;;2.40;;
62925;SDS011;55732;52.248;-0.844;2023-07-22T03:14:05;2.80;;;2.10;;
62925;SDS011;55732;52.248;-0.844;2023-07-22T03:16:31;3.90;;;2.20;;
62925;SDS011;55732;52.248;-0.844;2023-07-22T03:18:57;4.20;;;2.30;;
62925;SDS011;55732;52.248;-0.844;2023-07-22T03:21:22;4.20;;;2.70;;
62925;SDS011;55732;52.248;-0.844;2023-07-22T03:23:48;3.10;;;2.80;;
62925;SDS011;55732;52.248;-0.844;2023-07-22T03:26:14;5.10;;;2.30;;
62925;SDS011;55732;52.248;-0.844;2023-07-22T03:28:39;4.60;;;2.50;;
62925;SDS011;55732;52.248;-0.844;2023-07-22T03:31:06;4.10;;;2.50;;
62925;SDS011;55732;52.248;-0.844;2023-07-22T03:33:35;3.60;;;2.60;;
62925;SDS011;55732;52.248;-0.844;2023-07-22T03:36:01;2.50;;;2.10;;
62925;SDS011;55732;52.248;-0.844;2023-07-22T03:38:26;4.20;;;2.50;;
62925;SDS011;55732;52.248;-0.844;2023-07-22T03:40:51;3.30;;;2.60;;
62925;SDS011;55732;52.248;-0.844;2023-07-22T03:43:20;2.90;;;2.50;;
62925;SDS011;55732;52.248;-0.844;2023-07-22T03:45:45;3.40;;;2.40;;
62925;SDS011;55732;52.248;-0.844;2023-07-22T03:48:11;3.30;;;2.50;;
62925;SDS011;55732;52.248;-0.844;2023-07-22T03:50:36;4.60;;;2.80;;
62925;SDS011;55732;52.248;-0.844;2023-07-22T03:53:02;3.90;;;2.70;;
62925;SDS011;55732;52.248;-0.844;2023-07-22T03:55:27;3.70;;;2.80;;
62925;SDS011;55732;52.248;-0.844;2023-07-22T03:57:53;3.30;;;2.50;;
62925;SDS011;55732;52.248;-0.844;2023-07-22T04:00:19;5.50;;;2.60;;
62925;SDS011;55732;52.248;-0.844;2023-07-22T04:02:46;7.60;;;2.50;;
62925;SDS011;55732;52.248;-0.844;2023-07-22T04:05:11;4.20;;;2.30;;
62925;SDS011;55732;52.248;-0.844;2023-07-22T04:07:37;4.50;;;2.60;;
62925;SDS011;55732;52.248;-0.844;2023-07-22T04:10:03;4.80;;;2.70;;
62925;SDS011;55732;52.248;-0.844;2023-07-22T04:12:28;6.40;;;2.40;;
62925;SDS011;55732;52.248;-0.844;2023-07-22T04:14:54;4.10;;;2.70;;
62925;SDS011;55732;52.248;-0.844;2023-07-22T04:17:19;4.90;;;2.40;;
62925;SDS011;55732;52.248;-0.844;2023-07-22T04:19:45;3.50;;;2.50;;
62925;SDS011;55732;52.248;-0.844;2023-07-22T04:22:11;4.20;;;2.60;;
62925;SDS011;55732;52.248;-0.844;2023-07-22T04:24:37;5.90;;;2.80;;
62925;SDS011;55732;52.248;-0.844;2023-07-22T04:27:02;4.40;;;2.60;;
62925;SDS011;55732;52.248;-0.844;2023-07-22T04:29:28;5.00;;;2.40;;
62925;SDS011;55732;52.248;-0.844;2023-07-22T04:31:57;4.00;;;2.50;;
62925;SDS011;55732;52.248;-0.844;2023-07-22T04:34:24;4.50;;;2.70;;
62925;SDS011;55732;52.248;-0.844;2023-07-22T04:36:53;4.00;;;2.60;;
62925;SDS011;55732;52.248;-0.844;2023-07-22T04:39:19;3.20;;;2.30;;
62925;SDS011;55732;52.248;-0.844;2023-07-22T04:41:44;3.90;;;2.70;;
62925;SDS011;55732;52.248;-0.844;2023-07-22T04:44:10;6.30;;;3.20;;
62925;SDS011;55732;52.248;-0.844;2023-07-22T04:46:35;4.30;;;2.70;;
62925;SDS011;55732;52.248;-0.844;2023-07-22T04:49:00;5.60;;;3.00;;
62925;SDS011;55732;52.248;-0.844;2023-07-22T04:51:26;6.30;;;2.90;;
62925;SDS011;55732;52.248;-0.844;2023-07-22T04:53:52;4.50;;;3.00;;
62925;SDS011;55732;52.248;-0.844;2023-07-22T04:56:17;13.40;;;2.90;;
62925;SDS011;55732;52.248;-0.844;2023-07-22T04:58:42;3.50;;;2.70;;
62925;SDS011;55732;52.248;-0.844;2023-07-22T05:01:08;7.00;;;2.80;;
62925;SDS011;55732;52.248;-0.844;2023-07-22T05:03:34;5.60;;;2.80;;
62925;SDS011;55732;52.248;-0.844;2023-07-22T05:06:00;3.50;;;2.60;;
62925;SDS011;55732;52.248;-0.844;2023-07-22T05:08:26;5.70;;;2.80;;
62925;SDS011;55732;52.248;-0.844;2023-07-22T05:10:52;5.40;;;2.90;;
62925;SDS011;55732;52.248;-0.844;2023-07-22T05:13:18;4.90;;;2.60;;
62925;SDS011;55732;52.248;-0.844;2023-07-22T05:15:44;5.60;;;2.60;;
62925;SDS011;55732;52.248;-0.844;2023-07-22T05:18:09;7.90;;;2.50;;
62925;SDS011;55732;52.248;-0.844;2023-07-22T05:20:35;5.20;;;2.80;;
62925;SDS011;55732;52.248;-0.844;2023-07-22T05:23:02;3.90;;;2.40;;
62925;SDS011;55732;52.248;-0.844;2023-07-22T05:25:28;6.70;;;2.60;;
62925;SDS011;55732;52.248;-0.844;2023-07-22T05:27:53;4.90;;;2.40;;
62925;SDS011;55732;52.248;-0.844;2023-07-22T05:30:18;6.10;;;3.00;;
62925;SDS011;55732;52.248;-0.844;2023-07-22T05:32:44;4.70;;;2.40;;
62925;SDS011;55732;52.248;-0.844;2023-07-22T05:35:09;6.50;;;3.90;;
62925;SDS011;55732;52.248;-0.844;2023-07-22T05:37:35;4.00;;;2.60;;
62925;SDS011;55732;52.248;-0.844;2023-07-22T05:40:00;5.40;;;2.60;;
62925;SDS011;55732;52.248;-0.844;2023-07-22T05:42:26;7.10;;;2.80;;
62925;SDS011;55732;52.248;-0.844;2023-07-22T05:44:56;8.50;;;2.70;;
62925;SDS011;55732;52.248;-0.844;2023-07-22T05:47:22;3.60;;;2.70;;
62925;SDS011;55732;52.248;-0.844;2023-07-22T05:49:48;3.70;;;2.50;;
62925;SDS011;55732;52.248;-0.844;2023-07-22T05:52:14;4.60;;;2.70;;
62925;SDS011;55732;52.248;-0.844;2023-07-22T05:54:40;4.50;;;2.50;;
62925;SDS011;55732;52.248;-0.844;2023-07-22T05:57:05;6.00;;;2.70;;
62925;SDS011;55732;52.248;-0.844;2023-07-22T05:59:31;5.30;;;2.90;;
62925;SDS011;55732;52.248;-0.844;2023-07-22T06:01:56;4.00;;;2.90;;
62925;SDS011;55732;52.248;-0.844;2023-07-22T06:04:22;5.10;;;2.70;;
62925;SDS011;55732;52.248;-0.844;2023-07-22T06:06:48;4.70;;;2.70;;
62925;SDS011;55732;52.248;-0.844;2023-07-22T06:09:13;5.20;;;2.50;;
62925;SDS011;55732;52.248;-0.844;2023-07-22T06:11:39;5.00;;;2.40;;
62925;SDS011;55732;52.248;-0.844;2023-07-22T06:14:04;5.50;;;2.50;;
62925;SDS011;55732;52.248;-0.844;2023-07-22T06:16:30;4.50;;;2.60;;
62925;SDS011;55732;52.248;-0.844;2023-07-22T06:18:56;9.00;;;2.60;;
62925;SDS011;55732;52.248;-0.844;2023-07-22T06:21:21;4.80;;;2.10;;
62925;SDS011;55732;52.248;-0.844;2023-07-22T06:23:46;2.90;;;2.00;;
62925;SDS011;55732;52.248;-0.844;2023-07-22T06:26:12;3.70;;;2.50;;
62925;SDS011;55732;52.248;-0.844;2023-07-22T06:28:37;5.30;;;2.90;;
62925;SDS011;55732;52.248;-0.844;2023-07-22T06:31:03;5.50;;;2.50;;
62925;SDS011;55732;52.248;-0.844;2023-07-22T06:33:28;2.60;;;2.00;;
62925;SDS011;55732;52.248;-0.844;2023-07-22T06:35:53;3.90;;;2.20;;
62925;SDS011;55732;52.248;-0.844;2023-07-22T06:38:19;4.30;;;2.40;;
62925;SDS011;55732;52.248;-0.844;2023-07-22T06:40:44;5.00;;;2.40;;
62925;SDS011;55732;52.248;-0.844;2023-07-22T06:43:10;5.00;;;2.30;;
62925;SDS011;55732;52.248;-0.844;2023-07-22T06:45:35;4.20;;;2.40;;
62925;SDS011;55732;52.248;-0.844;2023-07-22T06:48:01;4.70;;;2.40;;
62925;SDS011;55732;52.248;-0.844;2023-07-22T06:50:28;4.00;;;2.30;;
62925;SDS011;55732;52.248;-0.844;2023-07-22T06:52:53;5.20;;;2.80;;
62925;SDS011;55732;52.248;-0.844;2023-07-22T06:55:18;4.10;;;2.10;;
62925;SDS011;55732;52.248;-0.844;2023-07-22T06:57:45;6.80;;;2.70;;
62925;SDS011;55732;52.248;-0.844;2023-07-22T07:00:13;7.20;;;2.20;;
62925;SDS011;55732;52.248;-0.844;2023-07-22T07:02:39;5.30;;;2.70;;
62925;SDS011;55732;52.248;-0.844;2023-07-22T07:05:04;5.20;;;2.70;;
62925;SDS011;55732;52.248;-0.844;2023-07-22T07:07:32;6.10;;;2.50;;
62925;SDS011;55732;52.248;-0.844;2023-07-22T07:09:58;4.40;;;2.50;;
62925;SDS011;55732;52.248;-0.844;2023-07-22T07:12:23;4.20;;;2.60;;
62925;SDS011;55732;52.248;-0.844;2023-07-22T07:14:52;6.10;;;2.90;;
62925;SDS011;55732;52.248;-0.844;2023-07-22T07:17:18;4.00;;;2.70;;
62925;SDS011;55732;52.248;-0.844;2023-07-22T07:19:44;5.70;;;2.70;;
62925;SDS011;55732;52.248;-0.844;2023-07-22T07:22:09;5.70;;;2.80;;
62925;SDS011;55732;52.248;-0.844;2023-07-22T07:24:34;4.60;;;2.50;;
62925;SDS011;55732;52.248;-0.844;2023-07-22T07:27:00;6.60;;;3.00;;
62925;SDS011;55732;52.248;-0.844;2023-07-22T07:29:25;4.70;;;2.70;;
62925;SDS011;55732;52.248;-0.844;2023-07-22T07:31:51;6.70;;;2.80;;
62925;SDS011;55732;52.248;-0.844;2023-07-22T07:34:16;5.80;;;2.60;;
62925;SDS011;55732;52.248;-0.844;2023-07-22T07:36:41;5.20;;;2.70;;
62925;SDS011;55732;52.248;-0.844;2023-07-22T07:39:07;4.50;;;2.90;;
62925;SDS011;55732;52.248;-0.844;2023-07-22T07:41:32;4.60;;;2.90;;
62925;SDS011;55732;52.248;-0.844;2023-07-22T07:43:58;5.30;;;3.20;;
62925;SDS011;55732;52.248;-0.844;2023-07-22T07:46:26;7.40;;;3.00;;
62925;SDS011;55732;52.248;-0.844;2023-07-22T07:48:53;5.90;;;2.70;;
62925;SDS011;55732;52.248;-0.844;2023-07-22T07:51:24;5.80;;;3.40;;
62925;SDS011;55732;52.248;-0.844;2023-07-22T07:53:52;3.40;;;2.60;;
62925;SDS011;55732;52.248;-0.844;2023-07-22T07:56:18;5.70;;;2.80;;
62925;SDS011;55732;52.248;-0.844;2023-07-22T07:58:45;7.00;;;3.20;;
62925;SDS011;55732;52.248;-0.844;2023-07-22T08:01:13;5.00;;;3.00;;
62925;SDS011;55732;52.248;-0.844;2023-07-22T08:03:39;4.50;;;2.90;;
62925;SDS011;55732;52.248;-0.844;2023-07-22T08:06:07;4.80;;;3.00;;
62925;SDS011;55732;52.248;-0.844;2023-07-22T08:08:33;6.60;;;3.00;;
62925;SDS011;55732;52.248;-0.844;2023-07-22T08:13:35;5.40;;;3.00;;
62925;SDS011;55732;52.248;-0.844;2023-07-22T08:16:02;8.30;;;3.00;;
62925;SDS011;55732;52.248;-0.844;2023-07-22T08:18:30;7.10;;;3.40;;
62925;SDS011;55732;52.248;-0.844;2023-07-22T08:20:56;8.70;;;3.10;;
62925;SDS011;55732;52.248;-0.844;2023-07-22T08:23:22;4.90;;;3.00;;
62925;SDS011;55732;52.248;-0.844;2023-07-22T08:25:48;5.10;;;3.10;;
62925;SDS011;55732;52.248;-0.844;2023-07-22T08:28:14;4.60;;;3.10;;
62925;SDS011;55732;52.248;-0.844;2023-07-22T08:30:40;8.20;;;4.00;;
62925;SDS011;55732;52.248;-0.844;2023-07-22T08:33:06;7.20;;;3.60;;
62925;SDS011;55732;52.248;-0.844;2023-07-22T08:35:34;5.10;;;3.50;;
62925;SDS011;55732;52.248;-0.844;2023-07-22T08:38:01;6.70;;;3.50;;
62925;SDS011;55732;52.248;-0.844;2023-07-22T08:40:35;6.10;;;3.60;;
62925;SDS011;55732;52.248;-0.844;2023-07-22T08:43:02;5.10;;;3.20;;
62925;SDS011;55732;52.248;-0.844;2023-07-22T08:47:58;6.40;;;3.50;;
62925;SDS011;55732;52.248;-0.844;2023-07-22T08:50:25;6.00;;;3.20;;
62925;SDS011;55732;52.248;-0.844;2023-07-22T08:52:58;7.70;;;4.00;;
62925;SDS011;55732;52.248;-0.844;2023-07-22T08:55:25;6.80;;;3.80;;
62925;SDS011;55732;52.248;-0.844;2023-07-22T08:57:51;7.50;;;3.90;;
62925;SDS011;55732;52.248;-0.844;2023-07-22T09:00:16;7.20;;;3.60;;
62925;SDS011;55732;52.248;-0.844;2023-07-22T09:02:43;6.40;;;4.00;;
62925;SDS011;55732;52.248;-0.844;2023-07-22T09:05:10;6.90;;;3.70;;
62925;SDS011;55732;52.248;-0.844;2023-07-22T09:07:36;7.00;;;3.90;;
62925;SDS011;55732;52.248;-0.844;2023-07-22T09:10:06;9.20;;;3.50;;
62925;SDS011;55732;52.248;-0.844;2023-07-22T09:12:34;6.10;;;3.50;;
62925;SDS011;55732;52.248;-0.844;2023-07-22T09:15:07;8.40;;;4.30;;
62925;SDS011;55732;52.248;-0.844;2023-07-22T09:17:36;5.60;;;4.00;;
62925;SDS011;55732;52.248;-0.844;2023-07-22T09:20:03;5.50;;;3.90;;
62925;SDS011;55732;52.248;-0.844;2023-07-22T09:22:29;5.30;;;3.90;;
62925;SDS011;55732;52.248;-0.844;2023-07-22T09:25:06;6.40;;;4.20;;
62925;SDS011;55732;52.248;-0.844;2023-07-22T09:30:28;4.60;;;3.60;;
62925;SDS011;55732;52.248;-0.844;2023-07-22T09:33:05;6.60;;;3.80;;
62925;SDS011;55732;52.248;-0.844;2023-07-22T09:35:45;8.30;;;4.10;;
62925;SDS011;55732;52.248;-0.844;2023-07-22T09:38:11;5.40;;;3.60;;
62925;SDS011;55732;52.248;-0.844;2023-07-22T09:40:39;7.10;;;4.20;;
62925;SDS011;55732;52.248;-0.844;2023-07-22T09:43:05;5.80;;;3.70;;
62925;SDS011;55732;52.248;-0.844;2023-07-22T09:45:31;6.40;;;3.80;;
62925;SDS011;55732;52.248;-0.844;2023-07-22T09:47:57;6.50;;;4.00;;
62925;SDS011;55732;52.248;-0.844;2023-07-22T09:50:24;6.70;;;4.10;;
62925;SDS011;55732;52.248;-0.844;2023-07-22T09:52:52;6.60;;;4.10;;
62925;SDS011;55732;52.248;-0.844;2023-07-22T09:55:20;6.40;;;4.00;;
62925;SDS011;55732;52.248;-0.844;2023-07-22T09:57:49;5.30;;;4.00;;
62925;SDS011;55732;52.248;-0.844;2023-07-22T10:00:17;5.30;;;3.80;;
62925;SDS011;55732;52.248;-0.844;2023-07-22T10:02:46;6.20;;;4.60;;
62925;SDS011;55732;52.248;-0.844;2023-07-22T10:05:15;6.70;;;4.00;;
62925;SDS011;55732;52.248;-0.844;2023-07-22T10:07:43;7.40;;;4.20;;
62925;SDS011;55732;52.248;-0.844;2023-07-22T10:10:18;9.40;;;4.50;;
62925;SDS011;55732;52.248;-0.844;2023-07-22T10:12:45;6.90;;;4.40;;
62925;SDS011;55732;52.248;-0.844;2023-07-22T10:15:11;9.70;;;4.00;;
62925;SDS011;55732;52.248;-0.844;2023-07-22T10:17:40;5.70;;;4.20;;
62925;SDS011;55732;52.248;-0.844;2023-07-22T10:20:07;8.00;;;4.10;;
62925;SDS011;55732;52.248;-0.844;2023-07-22T10:22:34;7.70;;;4.40;;
62925;SDS011;55732;52.248;-0.844;2023-07-22T10:25:02;6.60;;;4.20;;
62925;SDS011;55732;52.248;-0.844;2023-07-22T10:27:31;6.40;;;4.30;;
62925;SDS011;55732;52.248;-0.844;2023-07-22T10:29:56;9.20;;;4.40;;
62925;SDS011;55732;52.248;-0.844;2023-07-22T10:32:21;5.90;;;4.10;;
62925;SDS011;55732;52.248;-0.844;2023-07-22T10:34:47;6.10;;;4.50;;
62925;SDS011;55732;52.248;-0.844;2023-07-22T10:37:13;6.00;;;4.00;;
62925;SDS011;55732;52.248;-0.844;2023-07-22T10:39:38;7.90;;;3.90;;
62925;SDS011;55732;52.248;-0.844;2023-07-22T10:42:03;6.50;;;4.60;;
62925;SDS011;55732;52.248;-0.844;2023-07-22T10:44:33;9.10;;;4.40;;
62925;SDS011;55732;52.248;-0.844;2023-07-22T10:47:01;7.60;;;4.90;;
62925;SDS011;55732;52.248;-0.844;2023-07-22T10:49:42;6.60;;;4.00;;
62925;SDS011;55732;52.248;-0.844;2023-07-22T10:52:10;8.80;;;4.50;;
62925;SDS011;55732;52.248;-0.844;2023-07-22T10:54:38;7.00;;;4.10;;
62925;SDS011;55732;52.248;-0.844;2023-07-22T10:57:25;7.10;;;4.20;;
62925;SDS011;55732;52.248;-0.844;2023-07-22T10:59:52;4.40;;;3.70;;
62925;SDS011;55732;52.248;-0.844;2023-07-22T11:02:24;4.80;;;3.90;;
62925;SDS011;55732;52.248;-0.844;2023-07-22T11:04:50;8.10;;;4.10;;
62925;SDS011;55732;52.248;-0.844;2023-07-22T11:07:16;8.40;;;4.20;;
62925;SDS011;55732;52.248;-0.844;2023-07-22T11:09:55;6.10;;;4.40;;
62925;SDS011;55732;52.248;-0.844;2023-07-22T11:12:21;6.40;;;4.60;;
62925;SDS011;55732;52.248;-0.844;2023-07-22T11:14:50;7.20;;;4.20;;
62925;SDS011;55732;52.248;-0.844;2023-07-22T11:17:18;6.00;;;4.00;;
62925;SDS011;55732;52.248;-0.844;2023-07-22T11:19:53;6.30;;;3.80;;
62925;SDS011;55732;52.248;-0.844;2023-07-22T11:22:19;6.60;;;4.10;;
62925;SDS011;55732;52.248;-0.844;2023-07-22T11:24:45;8.10;;;4.50;;
62925;SDS011;55732;52.248;-0.844;2023-07-22T11:27:10;5.90;;;3.90;;
62925;SDS011;55732;52.248;-0.844;2023-07-22T11:29:37;7.00;;;4.40;;
62925;SDS011;55732;52.248;-0.844;2023-07-22T11:32:02;6.50;;;4.20;;
62925;SDS011;55732;52.248;-0.844;2023-07-22T11:34:28;7.60;;;4.40;;
62925;SDS011;55732;52.248;-0.844;2023-07-22T11:36:54;5.60;;;3.90;;
62925;SDS011;55732;52.248;-0.844;2023-07-22T11:39:21;7.70;;;4.50;;
62925;SDS011;55732;52.248;-0.844;2023-07-22T11:41:49;5.50;;;4.20;;
62925;SDS011;55732;52.248;-0.844;2023-07-22T11:44:16;9.20;;;4.50;;
62925;SDS011;55732;52.248;-0.844;2023-07-22T11:49:12;9.00;;;4.60;;
62925;SDS011;55732;52.248;-0.844;2023-07-22T11:51:41;7.70;;;4.60;;
62925;SDS011;55732;52.248;-0.844;2023-07-22T11:54:07;7.70;;;4.70;;
62925;SDS011;55732;52.248;-0.844;2023-07-22T11:56:33;6.80;;;4.50;;
62925;SDS011;55732;52.248;-0.844;2023-07-22T11:58:58;7.30;;;4.20;;
62925;SDS011;55732;52.248;-0.844;2023-07-22T12:01:23;8.90;;;4.40;;
62925;SDS011;55732;52.248;-0.844;2023-07-22T12:03:49;9.30;;;4.80;;
62925;SDS011;55732;52.248;-0.844;2023-07-22T12:06:20;8.50;;;4.60;;
62925;SDS011;55732;52.248;-0.844;2023-07-22T12:08:51;6.60;;;4.30;;
62925;SDS011;55732;52.248;-0.844;2023-07-22T12:11:17;8.50;;;4.30;;
62925;SDS011;55732;52.248;-0.844;2023-07-22T12:14:11;10.60;;;4.20;;
62925;SDS011;55732;52.248;-0.844;2023-07-22T12:16:39;5.50;;;3.80;;
62925;SDS011;55732;52.248;-0.844;2023-07-22T12:19:09;8.30;;;4.40;;
62925;SDS011;55732;52.248;-0.844;2023-07-22T12:21:35;6.00;;;3.70;;
62925;SDS011;55732;52.248;-0.844;2023-07-22T12:24:00;6.00;;;4.10;;
62925;SDS011;55732;52.248;-0.844;2023-07-22T12:26:26;5.70;;;3.90;;
62925;SDS011;55732;52.248;-0.844;2023-07-22T12:28:51;6.00;;;4.00;;
62925;SDS011;55732;52.248;-0.844;2023-07-22T12:31:17;6.20;;;3.90;;
62925;SDS011;55732;52.248;-0.844;2023-07-22T12:33:42;8.40;;;3.70;;
62925;SDS011;55732;52.248;-0.844;2023-07-22T12:36:08;6.50;;;3.70;;
62925;SDS011;55732;52.248;-0.844;2023-07-22T12:38:34;5.30;;;3.60;;
62925;SDS011;55732;52.248;-0.844;2023-07-22T12:41:00;6.60;;;3.90;;
62925;SDS011;55732;52.248;-0.844;2023-07-22T12:43:25;6.70;;;4.50;;
62925;SDS011;55732;52.248;-0.844;2023-07-22T12:45:51;6.30;;;4.20;;
62925;SDS011;55732;52.248;-0.844;2023-07-22T12:48:16;5.40;;;3.60;;
62925;SDS011;55732;52.248;-0.844;2023-07-22T12:50:42;5.90;;;3.70;;
62925;SDS011;55732;52.248;-0.844;2023-07-22T12:53:08;5.40;;;3.60;;
62925;SDS011;55732;52.248;-0.844;2023-07-22T12:55:34;6.30;;;3.80;;
62925;SDS011;55732;52.248;-0.844;2023-07-22T12:57:59;5.80;;;3.70;;
62925;SDS011;55732;52.248;-0.844;2023-07-22T13:00:24;6.30;;;3.50;;
62925;SDS011;55732;52.248;-0.844;2023-07-22T13:02:50;4.50;;;3.40;;
62925;SDS011;55732;52.248;-0.844;2023-07-22T13:05:15;7.30;;;3.90;;
62925;SDS011;55732;52.248;-0.844;2023-07-22T13:07:41;4.60;;;3.60;;
62925;SDS011;55732;52.248;-0.844;2023-07-22T13:10:06;5.20;;;3.20;;
62925;SDS011;55732;52.248;-0.844;2023-07-22T13:12:36;5.70;;;3.80;;
62925;SDS011;55732;52.248;-0.844;2023-07-22T13:15:02;5.10;;;3.50;;
62925;SDS011;55732;52.248;-0.844;2023-07-22T13:17:28;5.10;;;3.40;;
62925;SDS011;55732;52.248;-0.844;2023-07-22T13:19:53;5.60;;;3.10;;
62925;SDS011;55732;52.248;-0.844;2023-07-22T13:22:18;7.40;;;3.70;;
62925;SDS011;55732;52.248;-0.844;2023-07-22T13:24:44;6.30;;;3.30;;
62925;SDS011;55732;52.248;-0.844;2023-07-22T13:27:09;5.80;;;3.30;;
62925;SDS011;55732;52.248;-0.844;2023-07-22T13:29:34;5.30;;;3.20;;
62925;SDS011;55732;52.248;-0.844;2023-07-22T13:32:00;3.80;;;2.80;;
62925;SDS011;55732;52.248;-0.844;2023-07-22T13:34:25;3.60;;;2.80;;
62925;SDS011;55732;52.248;-0.844;2023-07-22T13:36:51;3.80;;;3.20;;
62925;SDS011;55732;52.248;-0.844;2023-07-22T13:39:16;5.60;;;3.40;;
62925;SDS011;55732;52.248;-0.844;2023-07-22T13:41:41;5.20;;;3.50;;
62925;SDS011;55732;52.248;-0.844;2023-07-22T13:44:07;5.30;;;3.60;;
62925;SDS011;55732;52.248;-0.844;2023-07-22T13:46:32;5.80;;;3.50;;
62925;SDS011;55732;52.248;-0.844;2023-07-22T13:48:57;4.50;;;3.30;;
62925;SDS011;55732;52.248;-0.844;2023-07-22T13:51:23;5.60;;;3.50;;
62925;SDS011;55732;52.248;-0.844;2023-07-22T13:53:48;6.80;;;3.70;;
62925;SDS011;55732;52.248;-0.844;2023-07-22T13:56:14;4.90;;;3.30;;
62925;SDS011;55732;52.248;-0.844;2023-07-22T13:58:39;8.10;;;3.20;;
62925;SDS011;55732;52.248;-0.844;2023-07-22T14:01:04;5.70;;;3.30;;
62925;SDS011;55732;52.248;-0.844;2023-07-22T14:03:30;4.10;;;3.30;;
62925;SDS011;55732;52.248;-0.844;2023-07-22T14:05:56;5.20;;;3.40;;
62925;SDS011;55732;52.248;-0.844;2023-07-22T14:08:22;5.70;;;3.50;;
62925;SDS011;55732;52.248;-0.844;2023-07-22T14:10:47;4.20;;;3.10;;
62925;SDS011;55732;52.248;-0.844;2023-07-22T14:13:12;6.30;;;3.10;;
62925;SDS011;55732;52.248;-0.844;2023-07-22T14:15:38;5.90;;;3.50;;
62925;SDS011;55732;52.248;-0.844;2023-07-22T14:18:03;4.80;;;3.40;;
62925;SDS011;55732;52.248;-0.844;2023-07-22T14:20:29;6.20;;;3.50;;
62925;SDS011;55732;52.248;-0.844;2023-07-22T14:22:55;5.60;;;3.70;;
62925;SDS011;55732;52.248;-0.844;2023-07-22T14:25:22;5.30;;;3.30;;
62925;SDS011;55732;52.248;-0.844;2023-07-22T14:27:47;8.30;;;3.80;;
62925;SDS011;55732;52.248;-0.844;2023-07-22T14:30:12;4.40;;;3.10;;
62925;SDS011;55732;52.248;-0.844;2023-07-22T14:32:38;4.40;;;3.30;;
62925;SDS011;55732;52.248;-0.844;2023-07-22T14:35:03;5.10;;;2.90;;
62925;SDS011;55732;52.248;-0.844;2023-07-22T14:37:29;4.80;;;3.00;;
62925;SDS011;55732;52.248;-0.844;2023-07-22T14:39:55;3.60;;;2.60;;